createdAt,value
2018-01-23T00:00:32.579Z,80.99
2018-01-23T00:01:38.457Z,80.92
2018-01-23T00:02:45.221Z,80.88
2018-01-23T00:03:51.035Z,80.93
2018-01-23T00:04:56.824Z,80.93
2018-01-23T00:06:03.398Z,80.90
2018-01-23T00:07:09.215Z,80.87
2018-01-23T00:08:14.967Z,80.81
2018-01-23T00:09:21.505Z,80.69
2018-01-23T00:10:27.248Z,80.66
2018-01-23T00:11:33.035Z,80.69
2018-01-23T00:12:38.780Z,80.72
2018-01-23T00:13:44.533Z,80.79
2018-01-23T00:14:50.268Z,80.84
2018-01-23T00:15:56.031Z,80.80
2018-01-23T00:17:01.840Z,80.83
2018-01-23T00:18:07.402Z,81.01
2018-01-23T00:19:13.140Z,81.14
2018-01-23T00:20:18.910Z,81.16
2018-01-23T00:21:24.646Z,81.21
2018-01-23T00:22:30.658Z,81.08
2018-01-23T00:23:36.391Z,80.91
2018-01-23T00:24:42.145Z,80.79
2018-01-23T00:25:47.894Z,80.84
2018-01-23T00:26:53.652Z,80.90
2018-01-23T00:27:59.408Z,80.86
2018-01-23T00:29:05.916Z,80.89
2018-01-23T00:30:11.666Z,80.82
2018-01-23T00:31:17.415Z,80.85
2018-01-23T00:32:23.193Z,81.02
2018-01-23T00:33:29.751Z,80.98
2018-01-23T00:34:35.511Z,81.08
2018-01-23T00:35:41.999Z,81.16
2018-01-23T00:36:48.084Z,81.15
2018-01-23T00:37:53.830Z,81.16
2018-01-23T00:38:59.613Z,81.06
2018-01-23T00:40:06.139Z,81.04
2018-01-23T00:41:11.874Z,81.04
2018-01-23T00:42:17.612Z,81.13
2018-01-23T00:43:23.351Z,81.16
2018-01-23T00:44:29.119Z,81.12
2018-01-23T00:45:34.869Z,81.04
2018-01-23T00:46:41.403Z,80.99
2018-01-23T00:47:47.142Z,80.89
2018-01-23T00:48:52.867Z,80.84
2018-01-23T00:49:58.406Z,80.71
2018-01-23T00:51:04.175Z,80.63
2018-01-23T00:52:09.954Z,80.55
2018-01-23T00:53:15.688Z,80.50
2018-01-23T00:54:21.436Z,80.44
2018-01-23T00:55:27.189Z,80.38
2018-01-23T00:56:32.609Z,80.34
2018-01-23T00:57:38.698Z,80.23
2018-01-23T00:58:44.446Z,80.22
2018-01-23T00:59:50.177Z,80.20
2018-01-23T01:00:55.969Z,80.17
2018-01-23T01:02:02.472Z,80.16
2018-01-23T01:03:08.199Z,80.12
2018-01-23T01:04:13.951Z,80.14
2018-01-23T01:05:19.707Z,80.11
2018-01-23T01:06:26.262Z,80.05
2018-01-23T01:07:32.009Z,80.03
2018-01-23T01:08:37.750Z,80.07
2018-01-23T01:09:43.501Z,80.10
2018-01-23T01:10:49.269Z,80.06
2018-01-23T01:11:55.805Z,80.04
2018-01-23T01:13:01.574Z,80.05
2018-01-23T01:14:07.318Z,80.09
2018-01-23T01:15:13.110Z,80.02
2018-01-23T01:16:18.872Z,80.12
2018-01-23T01:17:24.637Z,80.13
2018-01-23T01:18:31.159Z,80.12
2018-01-23T01:19:36.961Z,80.15
2018-01-23T01:20:42.692Z,80.14
2018-01-23T01:21:49.201Z,80.16
2018-01-23T01:22:54.984Z,80.10
2018-01-23T01:24:01.569Z,80.17
2018-01-23T01:25:07.310Z,80.16
2018-01-23T01:26:13.039Z,80.13
2018-01-23T01:27:18.845Z,80.07
2018-01-23T01:28:24.619Z,80.02
2018-01-23T01:29:31.116Z,79.91
2018-01-23T01:30:36.863Z,79.81
2018-01-23T01:31:42.593Z,79.83
2018-01-23T01:32:48.327Z,79.96
2018-01-23T01:33:54.088Z,79.89
2018-01-23T01:34:59.821Z,79.86
2018-01-23T01:36:05.643Z,79.85
2018-01-23T01:37:11.377Z,79.75
2018-01-23T01:38:17.134Z,79.75
2018-01-23T01:39:22.888Z,79.67
2018-01-23T01:40:28.648Z,79.56
2018-01-23T01:41:34.384Z,79.40
2018-01-23T01:42:40.138Z,79.21
2018-01-23T01:43:45.879Z,79.06
2018-01-23T01:44:51.711Z,78.92
2018-01-23T01:45:57.444Z,78.83
2018-01-23T01:47:03.172Z,78.78
2018-01-23T01:48:08.930Z,78.79
2018-01-23T01:49:14.679Z,78.74
2018-01-23T01:50:20.443Z,78.79
2018-01-23T01:51:25.840Z,78.85
2018-01-23T01:52:31.599Z,78.81
2018-01-23T01:53:37.358Z,78.77
2018-01-23T01:54:43.111Z,78.71
2018-01-23T01:55:49.663Z,78.67
2018-01-23T01:56:55.393Z,78.72
2018-01-23T01:58:01.131Z,78.81
2018-01-23T01:59:06.919Z,78.78
2018-01-23T02:00:12.651Z,78.84
2018-01-23T02:01:18.420Z,78.98
2018-01-23T02:02:24.184Z,79.02
2018-01-23T02:03:29.928Z,79.09
2018-01-23T02:04:35.687Z,79.20
2018-01-23T02:05:41.429Z,79.38
2018-01-23T02:06:47.953Z,79.45
2018-01-23T02:07:53.687Z,79.51
2018-01-23T02:08:59.476Z,79.66
2018-01-23T02:10:05.078Z,79.70
2018-01-23T02:11:10.816Z,79.75
2018-01-23T02:12:16.590Z,79.83
2018-01-23T02:13:23.492Z,79.96
2018-01-23T02:14:29.220Z,80.01
2018-01-23T02:15:35.745Z,80.05
2018-01-23T02:16:41.477Z,80.09
2018-01-23T02:17:47.249Z,80.03
2018-01-23T02:18:52.976Z,80.08
2018-01-23T02:19:59.506Z,80.09
2018-01-23T02:21:05.263Z,80.09
2018-01-23T02:22:10.992Z,80.02
2018-01-23T02:23:16.764Z,79.89
2018-01-23T02:24:23.283Z,79.82
2018-01-23T02:25:29.011Z,79.83
2018-01-23T02:26:34.736Z,79.74
2018-01-23T02:27:41.258Z,79.68
2018-01-23T02:28:47.048Z,79.64
2018-01-23T02:29:52.790Z,79.51
2018-01-23T02:30:58.529Z,79.33
2018-01-23T02:32:04.275Z,79.22
2018-01-23T02:33:10.005Z,79.18
2018-01-23T02:34:15.767Z,79.20
2018-01-23T02:35:21.531Z,79.23
2018-01-23T02:36:27.277Z,79.29
2018-01-23T02:37:33.024Z,79.33
2018-01-23T02:38:38.770Z,79.40
2018-01-23T02:39:44.513Z,79.49
2018-01-23T02:40:51.754Z,79.61
2018-01-23T02:41:57.485Z,79.77
2018-01-23T02:43:03.220Z,79.92
2018-01-23T02:44:08.986Z,79.96
2018-01-23T02:45:14.767Z,80.08
2018-01-23T02:46:20.493Z,80.27
2018-01-23T02:47:26.304Z,80.34
2018-01-23T02:48:32.067Z,80.39
2018-01-23T02:49:37.816Z,80.24
2018-01-23T02:50:43.595Z,80.19
2018-01-23T02:51:50.178Z,80.03
2018-01-23T02:52:55.906Z,79.85
2018-01-23T02:54:02.062Z,79.80
2018-01-23T02:55:07.819Z,79.72
2018-01-23T02:56:13.632Z,79.66
2018-01-23T02:57:20.151Z,79.62
2018-01-23T02:58:25.898Z,79.51
2018-01-23T02:59:31.626Z,79.46
2018-01-23T03:00:37.356Z,79.37
2018-01-23T03:01:43.116Z,79.32
2018-01-23T03:02:48.866Z,79.35
2018-01-23T03:03:54.588Z,79.31
2018-01-23T03:05:00.337Z,79.33
2018-01-23T03:06:06.109Z,79.33
2018-01-23T03:07:12.642Z,79.25
2018-01-23T03:08:18.360Z,79.14
2018-01-23T03:09:24.112Z,79.09
2018-01-23T03:10:29.858Z,78.99
2018-01-23T03:11:35.584Z,78.83
2018-01-23T03:12:41.337Z,78.67
2018-01-23T03:13:47.060Z,78.68
2018-01-23T03:14:52.805Z,78.70
2018-01-23T03:15:58.552Z,78.74
2018-01-23T03:17:04.318Z,78.76
2018-01-23T03:18:10.068Z,78.73
2018-01-23T03:19:15.628Z,78.85
2018-01-23T03:20:22.147Z,78.89
2018-01-23T03:21:27.881Z,79.03
2018-01-23T03:22:33.630Z,79.10
2018-01-23T03:23:39.395Z,79.21
2018-01-23T03:24:45.132Z,79.32
2018-01-23T03:25:50.857Z,79.41
2018-01-23T03:26:56.588Z,79.44
2018-01-23T03:28:02.392Z,79.52
2018-01-23T03:29:08.170Z,79.71
2018-01-23T03:30:13.911Z,79.85
2018-01-23T03:31:19.670Z,80.02
2018-01-23T03:32:25.422Z,80.02
2018-01-23T03:33:31.178Z,80.05
2018-01-23T03:34:37.727Z,80.07
2018-01-23T03:35:44.253Z,80.15
2018-01-23T03:36:50.007Z,80.20
2018-01-23T03:37:56.133Z,80.15
2018-01-23T03:39:01.864Z,80.26
2018-01-23T03:40:07.700Z,80.24
2018-01-23T03:41:13.452Z,80.29
2018-01-23T03:42:19.185Z,80.26
2018-01-23T03:43:24.938Z,80.24
2018-01-23T03:44:30.679Z,80.27
2018-01-23T03:45:36.470Z,80.36
2018-01-23T03:46:42.227Z,80.33
2018-01-23T03:47:48.728Z,80.37
2018-01-23T03:48:54.184Z,80.38
2018-01-23T03:49:59.942Z,80.38
2018-01-23T03:51:05.701Z,80.29
2018-01-23T03:52:12.955Z,80.22
2018-01-23T03:53:18.685Z,80.20
2018-01-23T03:54:24.439Z,80.26
2018-01-23T03:55:30.180Z,80.25
2018-01-23T03:56:35.652Z,80.31
2018-01-23T03:57:42.169Z,80.24
2018-01-23T03:58:47.914Z,80.17
2018-01-23T03:59:53.674Z,80.10
2018-01-23T04:01:00.951Z,79.99
2018-01-23T04:02:06.712Z,79.98
2018-01-23T04:03:13.512Z,80.00
2018-01-23T04:04:19.261Z,79.92
2018-01-23T04:05:24.992Z,79.97
2018-01-23T04:06:30.755Z,79.93
2018-01-23T04:07:36.536Z,79.88
2018-01-23T04:08:42.292Z,79.98
2018-01-23T04:09:48.825Z,79.95
2018-01-23T04:10:55.321Z,79.99
2018-01-23T04:12:01.048Z,79.96
2018-01-23T04:13:07.590Z,79.91
2018-01-23T04:14:13.334Z,79.92
2018-01-23T04:15:18.895Z,79.91
2018-01-23T04:16:25.420Z,79.94
2018-01-23T04:17:32.327Z,79.95
2018-01-23T04:18:38.872Z,79.92
2018-01-23T04:19:45.467Z,79.81
2018-01-23T04:20:51.217Z,79.70
2018-01-23T04:21:56.948Z,79.76
2018-01-23T04:23:02.728Z,79.75
2018-01-23T04:24:08.502Z,79.72
2018-01-23T04:25:15.003Z,79.58
2018-01-23T04:26:20.758Z,79.42
2018-01-23T04:27:26.518Z,79.38
2018-01-23T04:28:32.256Z,79.33
2018-01-23T04:29:38.112Z,79.33
2018-01-23T04:30:43.868Z,79.19
2018-01-23T04:31:50.384Z,79.16
2018-01-23T04:32:56.502Z,79.16
2018-01-23T04:34:02.082Z,79.11
2018-01-23T04:35:07.859Z,79.04
2018-01-23T04:36:14.734Z,78.96
2018-01-23T04:37:21.243Z,78.93
2018-01-23T04:38:26.992Z,78.96
2018-01-23T04:39:32.707Z,78.92
2018-01-23T04:40:38.496Z,78.70
2018-01-23T04:41:44.247Z,78.53
2018-01-23T04:42:50.745Z,78.58
2018-01-23T04:43:56.713Z,78.61
2018-01-23T04:45:02.452Z,78.61
2018-01-23T04:46:08.227Z,78.66
2018-01-23T04:47:13.952Z,78.77
2018-01-23T04:48:19.693Z,78.88
2018-01-23T04:49:25.424Z,79.00
2018-01-23T04:50:31.160Z,79.12
2018-01-23T04:51:36.915Z,79.09
2018-01-23T04:52:42.670Z,79.12
2018-01-23T04:53:49.927Z,79.07
2018-01-23T04:54:55.650Z,79.08
2018-01-23T04:56:01.466Z,79.07
2018-01-23T04:57:07.236Z,78.97
2018-01-23T04:58:12.985Z,78.93
2018-01-23T04:59:18.736Z,78.83
2018-01-23T05:00:24.479Z,78.83
2018-01-23T05:01:30.231Z,78.79
2018-01-23T05:02:36.007Z,78.78
2018-01-23T05:03:42.515Z,78.85
2018-01-23T05:04:48.253Z,78.88
2018-01-23T05:05:53.989Z,78.92
2018-01-23T05:06:59.743Z,79.07
2018-01-23T05:08:05.522Z,79.14
2018-01-23T05:09:12.232Z,79.07
2018-01-23T05:10:18.162Z,78.90
2018-01-23T05:11:23.884Z,78.69
2018-01-23T05:12:30.390Z,78.48
2018-01-23T05:13:36.159Z,78.26
2018-01-23T05:14:41.907Z,78.24
2018-01-23T05:15:48.428Z,78.19
2018-01-23T05:16:54.178Z,78.10
2018-01-23T05:17:59.921Z,77.98
2018-01-23T05:19:05.678Z,77.98
2018-01-23T05:20:11.396Z,77.99
2018-01-23T05:21:17.120Z,78.14
2018-01-23T05:22:22.848Z,78.20
2018-01-23T05:23:28.595Z,78.48
2018-01-23T05:24:34.372Z,78.66
2018-01-23T05:25:40.159Z,78.59
2018-01-23T05:26:45.907Z,78.65
2018-01-23T05:27:51.711Z,78.67
2018-01-23T05:28:57.456Z,78.62
2018-01-23T05:30:03.613Z,78.63
2018-01-23T05:31:10.139Z,78.55
2018-01-23T05:32:18.758Z,78.51
2018-01-23T05:33:24.485Z,78.61
2018-01-23T05:34:30.242Z,78.65
2018-01-23T05:35:35.992Z,78.64
2018-01-23T05:36:41.961Z,78.52
2018-01-23T05:37:48.948Z,78.44
2018-01-23T05:38:54.708Z,78.42
2018-01-23T05:40:00.477Z,78.43
2018-01-23T05:41:06.273Z,78.43
2018-01-23T05:42:12.030Z,78.34
2018-01-23T05:43:17.755Z,78.26
2018-01-23T05:44:23.500Z,78.22
2018-01-23T05:45:29.221Z,78.22
2018-01-23T05:46:35.733Z,78.13
2018-01-23T05:47:41.467Z,77.99
2018-01-23T05:48:47.217Z,77.78
2018-01-23T05:49:52.970Z,77.67
2018-01-23T05:50:58.710Z,77.58
2018-01-23T05:52:04.506Z,77.52
2018-01-23T05:53:10.244Z,77.38
2018-01-23T05:54:16.747Z,77.34
2018-01-23T05:55:22.468Z,77.36
2018-01-23T05:56:28.059Z,77.46
2018-01-23T05:57:33.675Z,77.58
2018-01-23T05:58:39.402Z,77.66
2018-01-23T05:59:45.156Z,77.62
2018-01-23T06:00:50.949Z,77.62
2018-01-23T06:01:56.676Z,77.60
2018-01-23T06:03:03.215Z,77.57
2018-01-23T06:04:09.745Z,77.45
2018-01-23T06:05:15.600Z,77.39
2018-01-23T06:06:21.382Z,77.34
2018-01-23T06:07:27.967Z,77.40
2018-01-23T06:08:33.738Z,77.51
2018-01-23T06:09:39.488Z,77.55
2018-01-23T06:10:45.212Z,77.56
2018-01-23T06:11:50.948Z,77.48
2018-01-23T06:12:56.690Z,77.49
2018-01-23T06:14:02.500Z,77.57
2018-01-23T06:15:08.241Z,77.66
2018-01-23T06:16:13.976Z,77.59
2018-01-23T06:17:20.487Z,77.61
2018-01-23T06:18:26.217Z,77.67
2018-01-23T06:19:31.995Z,77.81
2018-01-23T06:20:37.731Z,77.82
2018-01-23T06:21:43.479Z,77.81
2018-01-23T06:22:49.297Z,77.79
2018-01-23T06:23:55.020Z,77.70
2018-01-23T06:25:00.773Z,77.65
2018-01-23T06:26:06.546Z,77.58
2018-01-23T06:27:12.263Z,77.53
2018-01-23T06:28:19.313Z,77.65
2018-01-23T06:29:25.043Z,77.61
2018-01-23T06:30:30.787Z,77.50
2018-01-23T06:31:36.615Z,77.51
2018-01-23T06:32:42.299Z,77.53
2018-01-23T06:33:48.169Z,77.58
2018-01-23T06:34:53.893Z,77.69
2018-01-23T06:35:59.323Z,77.73
2018-01-23T06:37:05.041Z,77.67
2018-01-23T06:38:10.788Z,77.74
2018-01-23T06:39:16.546Z,77.86
2018-01-23T06:40:22.436Z,78.06
2018-01-23T06:41:28.945Z,78.24
2018-01-23T06:42:34.706Z,78.28
2018-01-23T06:43:41.264Z,78.37
2018-01-23T06:44:46.988Z,78.49
2018-01-23T06:45:52.758Z,78.56
2018-01-23T06:46:58.501Z,78.65
2018-01-23T06:48:04.987Z,78.76
2018-01-23T06:49:10.729Z,78.83
2018-01-23T06:50:16.524Z,79.03
2018-01-23T06:51:22.429Z,79.18
2018-01-23T06:52:28.203Z,79.31
2018-01-23T06:53:33.950Z,79.47
2018-01-23T06:54:39.692Z,79.42
2018-01-23T06:55:45.421Z,79.38
2018-01-23T06:56:51.137Z,79.30
2018-01-23T06:57:56.887Z,79.27
2018-01-23T06:59:02.733Z,79.26
2018-01-23T07:00:08.469Z,79.26
2018-01-23T07:01:14.194Z,79.34
2018-01-23T07:02:19.933Z,79.40
2018-01-23T07:03:25.694Z,79.38
2018-01-23T07:04:31.432Z,79.33
2018-01-23T07:05:37.182Z,79.29
2018-01-23T07:06:42.984Z,79.29
2018-01-23T07:07:48.739Z,79.29
2018-01-23T07:08:54.790Z,79.30
2018-01-23T07:10:00.947Z,79.31
2018-01-23T07:11:06.693Z,79.30
2018-01-23T07:12:12.447Z,79.35
2018-01-23T07:13:18.397Z,79.39
2018-01-23T07:14:23.991Z,79.40
2018-01-23T07:15:29.732Z,79.39
2018-01-23T07:16:36.235Z,79.37
2018-01-23T07:17:41.985Z,79.31
2018-01-23T07:18:47.720Z,79.29
2018-01-23T07:19:53.518Z,79.27
2018-01-23T07:20:59.244Z,79.22
2018-01-23T07:22:05.752Z,79.37
2018-01-23T07:23:11.491Z,79.38
2018-01-23T07:24:17.214Z,79.27
2018-01-23T07:25:22.952Z,79.16
2018-01-23T07:26:28.707Z,79.20
2018-01-23T07:27:34.445Z,79.22
2018-01-23T07:28:40.388Z,79.32
2018-01-23T07:29:46.145Z,79.32
2018-01-23T07:30:51.888Z,79.22
2018-01-23T07:31:57.633Z,79.21
2018-01-23T07:33:03.568Z,79.19
2018-01-23T07:34:09.291Z,79.21
2018-01-23T07:35:15.028Z,79.23
2018-01-23T07:36:21.572Z,79.13
2018-01-23T07:37:28.072Z,79.04
2018-01-23T07:38:33.811Z,79.01
2018-01-23T07:39:39.529Z,78.90
2018-01-23T07:40:45.276Z,78.88
2018-01-23T07:41:51.048Z,78.78
2018-01-23T07:42:56.822Z,78.73
2018-01-23T07:44:02.564Z,78.65
2018-01-23T07:45:08.303Z,78.56
2018-01-23T07:46:14.803Z,78.46
2018-01-23T07:47:20.548Z,78.49
2018-01-23T07:48:26.268Z,78.60
2018-01-23T07:49:31.997Z,78.53
2018-01-23T07:50:38.529Z,78.52
2018-01-23T07:51:44.252Z,78.48
2018-01-23T07:52:49.999Z,78.45
2018-01-23T07:53:55.721Z,78.28
2018-01-23T07:55:01.452Z,78.25
2018-01-23T07:56:07.195Z,78.18
2018-01-23T07:57:12.938Z,78.17
2018-01-23T07:58:18.684Z,78.04
2018-01-23T07:59:24.415Z,77.99
2018-01-23T08:00:30.167Z,78.02
2018-01-23T08:01:35.907Z,77.94
2018-01-23T08:02:41.648Z,77.92
2018-01-23T08:03:48.176Z,77.89
2018-01-23T08:04:53.930Z,77.94
2018-01-23T08:05:59.684Z,77.85
2018-01-23T08:07:05.433Z,77.73
2018-01-23T08:08:11.159Z,77.66
2018-01-23T08:09:16.928Z,77.56
2018-01-23T08:10:22.656Z,77.51
2018-01-23T08:11:29.161Z,77.49
2018-01-23T08:12:34.917Z,77.49
2018-01-23T08:13:41.412Z,77.49
2018-01-23T08:14:47.191Z,77.45
2018-01-23T08:15:52.918Z,77.39
2018-01-23T08:16:58.680Z,77.34
2018-01-23T08:18:04.846Z,77.37
2018-01-23T08:19:11.344Z,77.43
2018-01-23T08:20:17.137Z,77.38
2018-01-23T08:21:23.625Z,77.37
2018-01-23T08:22:29.360Z,77.32
2018-01-23T08:23:35.102Z,77.19
2018-01-23T08:24:40.606Z,77.21
2018-01-23T08:25:46.366Z,77.21
2018-01-23T08:26:52.861Z,77.19
2018-01-23T08:27:58.584Z,77.09
2018-01-23T08:29:04.764Z,77.15
2018-01-23T08:30:10.516Z,77.11
2018-01-23T08:31:16.373Z,77.08
2018-01-23T08:32:22.120Z,77.01
2018-01-23T08:33:27.879Z,76.89
2018-01-23T08:34:34.365Z,76.74
2018-01-23T08:35:40.120Z,76.67
2018-01-23T08:36:45.888Z,76.60
2018-01-23T08:37:52.199Z,76.45
2018-01-23T08:38:57.944Z,76.33
2018-01-23T08:40:03.691Z,76.21
2018-01-23T08:41:09.451Z,76.08
2018-01-23T08:42:15.224Z,76.02
2018-01-23T08:43:20.975Z,75.92
2018-01-23T08:44:28.312Z,75.79
2018-01-23T08:45:34.063Z,75.51
2018-01-23T08:46:39.811Z,75.49
2018-01-23T08:47:45.583Z,75.40
2018-01-23T08:48:51.900Z,75.30
2018-01-23T08:49:57.655Z,75.25
2018-01-23T08:51:03.375Z,75.18
2018-01-23T08:52:09.132Z,75.04
2018-01-23T08:53:14.921Z,74.97
2018-01-23T08:54:21.443Z,74.89
2018-01-23T08:55:27.177Z,74.75
2018-01-23T08:56:32.970Z,74.69
2018-01-23T08:57:39.482Z,74.59
2018-01-23T08:58:45.260Z,74.47
2018-01-23T08:59:51.006Z,74.39
2018-01-23T09:00:57.708Z,74.33
2018-01-23T09:02:03.991Z,74.20
2018-01-23T09:03:09.729Z,74.05
2018-01-23T09:04:15.484Z,74.02
2018-01-23T09:05:21.235Z,73.85
2018-01-23T09:06:27.001Z,73.79
2018-01-23T09:07:33.516Z,73.64
2018-01-23T09:08:39.277Z,73.63
2018-01-23T09:09:45.820Z,73.63
2018-01-23T09:10:51.582Z,73.54
2018-01-23T09:11:57.349Z,73.46
2018-01-23T09:13:03.924Z,73.32
2018-01-23T09:14:09.680Z,73.21
2018-01-23T09:15:15.118Z,73.13
2018-01-23T09:16:20.849Z,73.08
2018-01-23T09:17:26.088Z,73.05
2018-01-23T09:18:31.835Z,73.10
2018-01-23T09:19:37.815Z,73.00
2018-01-23T09:20:43.576Z,72.94
2018-01-23T09:21:50.079Z,72.88
2018-01-23T09:22:55.848Z,72.88
2018-01-23T09:24:01.668Z,72.95
2018-01-23T09:25:07.412Z,72.92
2018-01-23T09:26:13.188Z,72.87
2018-01-23T09:27:18.946Z,72.78
2018-01-23T09:28:25.451Z,72.70
2018-01-23T09:29:31.207Z,72.73
2018-01-23T09:30:36.955Z,72.72
2018-01-23T09:31:42.748Z,72.55
2018-01-23T09:32:48.511Z,72.51
2018-01-23T09:33:54.252Z,72.50
2018-01-23T09:35:00.036Z,72.46
2018-01-23T09:36:05.771Z,72.48
2018-01-23T09:37:11.532Z,72.52
2018-01-23T09:38:18.053Z,72.59
2018-01-23T09:39:23.806Z,72.54
2018-01-23T09:40:29.544Z,72.65
2018-01-23T09:41:35.303Z,72.61
2018-01-23T09:42:41.068Z,72.52
2018-01-23T09:43:47.569Z,72.49
2018-01-23T09:44:53.304Z,72.38
2018-01-23T09:45:58.865Z,72.29
2018-01-23T09:47:04.734Z,72.29
2018-01-23T09:48:11.285Z,72.10
2018-01-23T09:49:17.032Z,72.14
2018-01-23T09:50:22.760Z,72.07
2018-01-23T09:51:28.515Z,72.00
2018-01-23T09:52:35.017Z,71.92
2018-01-23T09:53:40.802Z,71.88
2018-01-23T09:54:47.312Z,71.89
2018-01-23T09:55:53.188Z,71.80
2018-01-23T09:56:58.937Z,71.75
2018-01-23T09:58:04.677Z,71.69
2018-01-23T09:59:10.463Z,71.56
2018-01-23T10:00:16.478Z,71.48
2018-01-23T10:01:22.235Z,71.44
2018-01-23T10:02:28.732Z,71.32
2018-01-23T10:03:34.489Z,71.21
2018-01-23T10:04:40.251Z,71.05
2018-01-23T10:05:45.998Z,70.83
2018-01-23T10:06:51.734Z,70.64
2018-01-23T10:07:57.494Z,70.52
2018-01-23T10:09:03.050Z,70.42
2018-01-23T10:10:09.567Z,70.37
2018-01-23T10:11:15.305Z,70.36
2018-01-23T10:12:21.110Z,70.26
2018-01-23T10:13:26.848Z,70.14
2018-01-23T10:14:33.001Z,69.96
2018-01-23T10:15:38.787Z,69.75
2018-01-23T10:16:44.520Z,69.54
2018-01-23T10:17:51.056Z,69.31
2018-01-23T10:18:56.789Z,69.38
2018-01-23T10:20:02.527Z,69.35
2018-01-23T10:21:09.082Z,69.34
2018-01-23T10:22:15.609Z,69.39
2018-01-23T10:23:21.173Z,69.52
2018-01-23T10:24:26.393Z,69.46
2018-01-23T10:25:32.712Z,69.37
2018-01-23T10:26:38.514Z,69.33
2018-01-23T10:27:44.352Z,69.33
2018-01-23T10:28:50.095Z,69.19
2018-01-23T10:29:55.859Z,69.05
2018-01-23T10:31:01.629Z,68.92
2018-01-23T10:32:08.184Z,68.66
2018-01-23T10:33:13.947Z,68.39
2018-01-23T10:34:20.491Z,68.17
2018-01-23T10:35:26.254Z,68.02
2018-01-23T10:36:32.769Z,67.82
2018-01-23T10:37:38.626Z,67.73
2018-01-23T10:38:44.426Z,67.86
2018-01-23T10:39:50.187Z,67.81
2018-01-23T10:40:55.953Z,67.72
2018-01-23T10:42:01.720Z,67.77
2018-01-23T10:43:08.267Z,67.86
2018-01-23T10:44:14.028Z,67.77
2018-01-23T10:45:19.800Z,67.80
2018-01-23T10:46:25.555Z,68.00
2018-01-23T10:47:31.347Z,68.01
2018-01-23T10:48:37.907Z,68.15
2018-01-23T10:49:44.437Z,68.20
2018-01-23T10:50:50.198Z,68.26
2018-01-23T10:51:55.762Z,68.27
2018-01-23T10:53:01.339Z,68.35
2018-01-23T10:54:07.153Z,68.48
2018-01-23T10:55:12.898Z,68.71
2018-01-23T10:56:18.644Z,68.85
2018-01-23T10:57:24.651Z,68.90
2018-01-23T10:58:30.850Z,68.84
2018-01-23T10:59:36.714Z,68.66
2018-01-23T11:00:47.584Z,68.47
2018-01-23T11:01:53.358Z,68.44
2018-01-23T11:02:59.878Z,68.56
2018-01-23T11:04:05.686Z,68.53
2018-01-23T11:05:11.465Z,68.31
2018-01-23T11:06:17.241Z,68.27
2018-01-23T11:07:23.779Z,68.20
2018-01-23T11:08:29.550Z,68.07
2018-01-23T11:09:36.073Z,67.89
2018-01-23T11:10:41.873Z,67.95
2018-01-23T11:11:47.646Z,67.82
2018-01-23T11:12:54.197Z,67.64
2018-01-23T11:13:59.955Z,67.69
2018-01-23T11:15:05.710Z,67.68
2018-01-23T11:16:13.015Z,67.76
2018-01-23T11:17:19.344Z,67.85
2018-01-23T11:18:25.089Z,67.87
2018-01-23T11:19:30.852Z,68.05
2018-01-23T11:20:37.361Z,68.01
2018-01-23T11:21:43.168Z,67.99
2018-01-23T11:22:48.927Z,67.92
2018-01-23T11:23:54.707Z,67.85
2018-01-23T11:25:00.470Z,67.70
2018-01-23T11:26:06.984Z,67.58
2018-01-23T11:27:12.754Z,67.73
2018-01-23T11:28:18.534Z,67.78
2018-01-23T11:29:24.281Z,67.84
2018-01-23T11:30:30.065Z,67.79
2018-01-23T11:31:35.830Z,67.85
2018-01-23T11:32:42.371Z,68.14
2018-01-23T11:33:48.111Z,68.29
2018-01-23T11:34:53.885Z,68.37
2018-01-23T11:36:00.421Z,68.29
2018-01-23T11:37:05.974Z,68.43
2018-01-23T11:38:12.568Z,68.51
2018-01-23T11:39:18.346Z,68.54
2018-01-23T11:40:24.105Z,68.53
2018-01-23T11:41:30.638Z,68.50
2018-01-23T11:42:36.403Z,68.53
2018-01-23T11:43:42.205Z,68.55
2018-01-23T11:44:47.972Z,68.54
2018-01-23T11:45:53.747Z,68.49
2018-01-23T11:47:00.325Z,68.41
2018-01-23T11:48:06.833Z,68.32
2018-01-23T11:49:12.609Z,68.32
2018-01-23T11:50:19.147Z,68.17
2018-01-23T11:51:25.657Z,68.03
2018-01-23T11:52:31.424Z,67.82
2018-01-23T11:53:37.164Z,67.44
2018-01-23T11:54:42.950Z,67.31
2018-01-23T11:55:48.689Z,67.35
2018-01-23T11:56:54.432Z,67.40
2018-01-23T11:58:00.967Z,67.39
2018-01-23T11:59:06.727Z,67.38
2018-01-23T12:00:12.487Z,67.34
2018-01-23T12:01:19.030Z,67.28
2018-01-23T12:02:24.789Z,66.89
2018-01-23T12:03:31.305Z,66.87
2018-01-23T12:04:37.310Z,67.07
2018-01-23T12:05:43.073Z,67.04
2018-01-23T12:06:48.831Z,66.87
2018-01-23T12:07:54.573Z,66.82
2018-01-23T12:09:00.326Z,66.77
2018-01-23T12:10:06.073Z,66.82
2018-01-23T12:11:11.855Z,66.78
2018-01-23T12:12:17.596Z,66.70
2018-01-23T12:13:23.376Z,66.56
2018-01-23T12:14:29.143Z,66.52
2018-01-23T12:15:34.896Z,66.67
2018-01-23T12:16:41.449Z,66.54
2018-01-23T12:17:47.207Z,66.51
2018-01-23T12:18:53.752Z,66.50
2018-01-23T12:19:59.792Z,66.38
2018-01-23T12:21:07.059Z,66.26
2018-01-23T12:22:12.881Z,66.14
2018-01-23T12:23:18.663Z,66.04
2018-01-23T12:24:25.247Z,65.79
2018-01-23T12:25:31.132Z,65.89
2018-01-23T12:26:36.895Z,65.99
2018-01-23T12:27:43.464Z,65.97
2018-01-23T12:28:49.227Z,65.91
2018-01-23T12:29:55.747Z,65.76
2018-01-23T12:31:01.655Z,65.67
2018-01-23T12:32:08.358Z,65.54
2018-01-23T12:33:13.944Z,65.62
2018-01-23T12:34:20.443Z,65.57
2018-01-23T12:35:25.839Z,65.69
2018-01-23T12:36:32.363Z,65.86
2018-01-23T12:37:38.105Z,65.80
2018-01-23T12:38:44.671Z,65.62
2018-01-23T12:39:50.419Z,65.52
2018-01-23T12:40:56.185Z,65.51
2018-01-23T12:42:02.708Z,65.51
2018-01-23T12:43:09.991Z,65.48
2018-01-23T12:44:15.787Z,65.44
2018-01-23T12:45:22.314Z,65.37
2018-01-23T12:46:28.988Z,65.47
2018-01-23T12:47:34.882Z,65.46
2018-01-23T12:48:40.614Z,65.35
2018-01-23T12:49:46.393Z,65.23
2018-01-23T12:50:52.161Z,65.17
2018-01-23T12:51:58.135Z,65.11
2018-01-23T12:53:03.900Z,65.12
2018-01-23T12:54:09.659Z,65.24
2018-01-23T12:55:15.416Z,65.21
2018-01-23T12:56:21.913Z,65.23
2018-01-23T12:57:27.653Z,65.36
2018-01-23T12:58:33.442Z,65.47
2018-01-23T12:59:39.303Z,65.60
2018-01-23T13:00:45.680Z,65.69
2018-01-23T13:01:51.439Z,65.86
2018-01-23T13:02:57.195Z,66.07
2018-01-23T13:04:02.966Z,66.13
2018-01-23T13:05:09.561Z,65.99
2018-01-23T13:06:15.420Z,65.88
2018-01-23T13:07:22.488Z,65.90
2018-01-23T13:08:28.246Z,65.90
2018-01-23T13:09:34.018Z,65.85
2018-01-23T13:10:39.779Z,65.85
2018-01-23T13:11:46.328Z,65.85
2018-01-23T13:12:52.069Z,65.84
2018-01-23T13:13:57.914Z,65.88
2018-01-23T13:15:04.209Z,65.96
2018-01-23T13:16:10.044Z,65.96
2018-01-23T13:17:15.916Z,66.00
2018-01-23T13:18:21.683Z,66.09
2018-01-23T13:19:27.470Z,66.07
2018-01-23T13:20:32.882Z,66.17
2018-01-23T13:21:39.080Z,66.17
2018-01-23T13:22:44.863Z,66.10
2018-01-23T13:23:50.643Z,66.08
2018-01-23T13:24:57.135Z,66.07
2018-01-23T13:26:02.683Z,66.09
2018-01-23T13:27:08.443Z,66.29
2018-01-23T13:28:14.214Z,66.22
2018-01-23T13:29:20.024Z,66.26
2018-01-23T13:30:25.788Z,66.20
2018-01-23T13:31:32.294Z,66.17
2018-01-23T13:32:38.051Z,66.28
2018-01-23T13:33:43.824Z,66.23
2018-01-23T13:34:50.375Z,66.22
2018-01-23T13:35:56.129Z,66.22
2018-01-23T13:37:02.633Z,66.23
2018-01-23T13:38:08.371Z,66.40
2018-01-23T13:39:14.142Z,66.51
2018-01-23T13:40:19.894Z,66.64
2018-01-23T13:41:26.415Z,66.78
2018-01-23T13:42:32.177Z,66.91
2018-01-23T13:43:37.935Z,66.95
2018-01-23T13:44:43.692Z,67.13
2018-01-23T13:45:50.214Z,67.16
2018-01-23T13:46:55.975Z,67.20
2018-01-23T13:48:01.719Z,67.23
2018-01-23T13:49:08.244Z,67.35
2018-01-23T13:50:14.019Z,67.38
2018-01-23T13:51:19.768Z,67.56
2018-01-23T13:52:25.509Z,67.68
2018-01-23T13:53:31.265Z,67.79
2018-01-23T13:54:38.727Z,67.88
2018-01-23T13:55:45.397Z,67.95
2018-01-23T13:56:51.914Z,67.87
2018-01-23T13:57:57.637Z,67.81
2018-01-23T13:59:03.390Z,67.81
2018-01-23T14:00:09.140Z,67.80
2018-01-23T14:01:14.951Z,67.79
2018-01-23T14:02:20.732Z,67.73
2018-01-23T14:03:26.474Z,67.62
2018-01-23T14:04:32.237Z,67.60
2018-01-23T14:05:37.969Z,67.64
2018-01-23T14:06:43.739Z,67.59
2018-01-23T14:07:50.241Z,67.58
2018-01-23T14:08:55.987Z,67.61